createdAt,value
2023-01-12T00:00:52.067Z,6.03
2023-01-12T00:01:52.182Z,6.03
2023-01-12T00:02:52.110Z,6.03
2023-01-12T00:03:52.152Z,6.04
2023-01-12T00:04:52.083Z,6.04
2023-01-12T00:05:52.092Z,6.06
2023-01-12T00:06:52.044Z,6.06
2023-01-12T00:07:52.032Z,6.08
2023-01-12T00:08:52.023Z,6.08
2023-01-12T00:09:52.135Z,6.08
2023-01-12T00:10:51.995Z,6.09
2023-01-12T00:11:51.992Z,6.09
2023-01-12T00:12:51.960Z,6.11
2023-01-12T00:13:52.054Z,6.09
2023-01-12T00:14:51.957Z,6.09
2023-01-12T00:15:51.962Z,6.09
2023-01-12T00:16:51.952Z,6.09
2023-01-12T00:17:51.954Z,6.09
2023-01-12T00:18:51.862Z,6.09
2023-01-12T00:19:51.903Z,6.09
2023-01-12T00:20:51.910Z,6.11
2023-01-12T00:21:51.886Z,6.09
2023-01-12T00:22:51.822Z,6.12
2023-01-12T00:23:51.831Z,6.11
2023-01-12T00:24:51.952Z,6.11
2023-01-12T00:25:51.834Z,6.14
2023-01-12T00:26:51.828Z,6.12
2023-01-12T00:27:51.783Z,6.12
2023-01-12T00:28:51.812Z,6.12
2023-01-12T00:29:51.764Z,6.12
2023-01-12T00:30:51.931Z,6.14
2023-01-12T00:31:51.774Z,6.14
2023-01-12T00:32:51.784Z,6.15
2023-01-12T00:33:51.723Z,6.14
2023-01-12T00:34:51.736Z,6.14
2023-01-12T00:35:51.718Z,6.14
2023-01-12T00:36:51.674Z,6.17
2023-01-12T00:37:51.718Z,6.15
2023-01-12T00:38:51.630Z,6.14
2023-01-12T00:40:01.777Z,6.15
2023-01-12T00:40:52.622Z,6.17
2023-01-12T00:41:51.615Z,6.18
2023-01-12T00:42:51.589Z,6.17
2023-01-12T00:43:51.659Z,6.18
2023-01-12T00:44:51.580Z,6.18
2023-01-12T00:45:51.647Z,6.17
2023-01-12T00:46:51.570Z,6.18
2023-01-12T00:47:51.580Z,6.17
2023-01-12T00:48:51.563Z,6.18
2023-01-12T00:49:51.559Z,6.17
2023-01-12T00:50:51.541Z,6.17
2023-01-12T00:51:51.612Z,6.17
2023-01-12T00:52:51.502Z,6.19
2023-01-12T00:53:51.531Z,6.19
2023-01-12T00:54:51.470Z,6.18
2023-01-12T00:55:51.581Z,6.19
2023-01-12T00:56:51.472Z,6.18
2023-01-12T00:57:51.539Z,6.17
2023-01-12T00:58:51.408Z,6.18
2023-01-12T00:59:51.483Z,6.18
2023-01-12T01:00:51.498Z,6.17
2023-01-12T01:01:51.432Z,6.18
2023-01-12T01:02:51.429Z,6.18
2023-01-12T01:03:51.392Z,6.18
2023-01-12T01:04:51.451Z,6.19
2023-01-12T01:05:51.393Z,6.18
2023-01-12T01:06:51.340Z,6.18
2023-01-12T01:07:51.359Z,6.18
2023-01-12T01:08:51.362Z,6.19
2023-01-12T01:09:51.311Z,6.21
2023-01-12T01:10:51.260Z,6.18
2023-01-12T01:11:51.312Z,6.19
2023-01-12T01:12:51.307Z,6.19
2023-01-12T01:13:51.267Z,6.18
2023-01-12T01:14:51.316Z,6.19
2023-01-12T01:15:51.351Z,6.19
2023-01-12T01:16:51.216Z,6.19
2023-01-12T01:17:51.217Z,6.19
2023-01-12T01:18:51.279Z,6.21
2023-01-12T01:19:51.197Z,6.19
2023-01-12T01:20:51.165Z,6.21
2023-01-12T01:21:51.236Z,6.21
2023-01-12T01:22:51.197Z,6.21
2023-01-12T01:23:51.172Z,6.21
2023-01-12T01:24:51.277Z,6.21
2023-01-12T01:25:51.160Z,6.22
2023-01-12T01:26:51.137Z,6.21
2023-01-12T01:27:51.157Z,6.19
2023-01-12T01:28:51.156Z,6.22
2023-01-12T01:29:51.203Z,6.21
2023-01-12T01:30:51.169Z,6.21
2023-01-12T01:31:51.169Z,6.22
2023-01-12T01:32:51.040Z,6.22
2023-01-12T01:33:51.047Z,6.22
2023-01-12T01:34:51.036Z,6.21
2023-01-12T01:35:51.108Z,6.22
2023-01-12T01:36:51.011Z,6.22
2023-01-12T01:37:51.013Z,6.25
2023-01-12T01:38:50.935Z,6.22
2023-01-12T01:39:50.988Z,6.22
2023-01-12T01:40:51.015Z,6.22
2023-01-12T01:41:50.935Z,6.25
2023-01-12T01:42:50.897Z,6.25
2023-01-12T01:43:50.908Z,6.25
2023-01-12T01:44:50.892Z,6.25
2023-01-12T01:45:50.899Z,6.27
2023-01-12T01:46:50.875Z,6.25
2023-01-12T01:47:50.960Z,6.27
2023-01-12T01:48:50.836Z,6.27
2023-01-12T01:49:50.868Z,6.27
2023-01-12T01:50:50.832Z,6.27
2023-01-12T01:51:51.162Z,6.28
2023-01-12T01:52:51.125Z,6.28
2023-01-12T01:53:50.968Z,6.27
2023-01-12T01:54:51.074Z,6.27
2023-01-12T01:55:51.110Z,6.28
2023-01-12T01:56:51.076Z,6.27
2023-01-12T01:57:50.926Z,6.27
2023-01-12T01:58:51.020Z,6.28
2023-01-12T01:59:50.779Z,6.28
2023-01-12T02:00:50.819Z,6.30
2023-01-12T02:01:50.859Z,6.30
2023-01-12T02:02:50.861Z,6.28
2023-01-12T02:03:50.925Z,6.27
2023-01-12T02:04:50.916Z,6.30
2023-01-12T02:05:50.673Z,6.28
2023-01-12T02:06:50.633Z,6.28
2023-01-12T02:07:50.633Z,6.30
2023-01-12T02:08:50.603Z,6.30
2023-01-12T02:09:50.617Z,6.28
2023-01-12T02:10:50.594Z,6.30
2023-01-12T02:11:50.573Z,6.31
2023-01-12T02:12:50.567Z,6.30
2023-01-12T02:13:50.568Z,6.31
2023-01-12T02:14:52.211Z,6.31
2023-01-12T02:15:50.608Z,6.30
2023-01-12T02:16:50.529Z,6.30
2023-01-12T02:17:50.547Z,6.31
2023-01-12T02:18:50.483Z,6.31
2023-01-12T02:19:50.503Z,6.30
2023-01-12T02:20:50.465Z,6.31
2023-01-12T02:21:50.480Z,6.31
2023-01-12T02:22:50.452Z,6.33
2023-01-12T02:23:50.464Z,6.34
2023-01-12T02:24:50.402Z,6.34
2023-01-12T02:25:50.427Z,6.34
2023-01-12T02:26:50.380Z,6.34
2023-01-12T02:27:50.420Z,6.36
2023-01-12T02:28:59.667Z,6.34
2023-01-12T02:29:50.378Z,6.36
2023-01-12T02:30:50.351Z,6.36
2023-01-12T02:31:50.348Z,6.36
2023-01-12T02:32:50.323Z,6.37
2023-01-12T02:33:50.333Z,6.36
2023-01-12T02:34:50.350Z,6.38
2023-01-12T02:35:50.309Z,6.38
2023-01-12T02:36:50.309Z,6.41
2023-01-12T02:37:50.288Z,6.41
2023-01-12T02:38:50.248Z,6.41
2023-01-12T02:39:50.286Z,6.41
2023-01-12T02:40:50.237Z,6.41
2023-01-12T02:41:50.240Z,6.43
2023-01-12T02:42:50.218Z,6.44
2023-01-12T02:43:50.208Z,6.46
2023-01-12T02:44:50.193Z,6.48
2023-01-12T02:45:50.209Z,6.48
2023-01-12T02:46:50.225Z,6.48
2023-01-12T02:47:50.146Z,6.49
2023-01-12T02:48:50.167Z,6.48
2023-01-12T02:49:50.129Z,6.49
2023-01-12T02:50:50.136Z,6.49
2023-01-12T02:51:50.125Z,6.51
2023-01-12T02:52:50.117Z,6.51
2023-01-12T02:53:50.067Z,6.51
2023-01-12T02:54:50.091Z,6.52
2023-01-12T02:55:50.051Z,6.52
2023-01-12T02:56:50.057Z,6.54
2023-01-12T02:57:50.030Z,6.54
2023-01-12T02:58:50.067Z,6.54
2023-01-12T02:59:50.007Z,6.55
2023-01-12T03:00:50.138Z,6.55
2023-01-12T03:01:50.024Z,6.55
2023-01-12T03:02:50.039Z,6.54
2023-01-12T03:03:49.972Z,6.55
2023-01-12T03:04:50.017Z,6.55
2023-01-12T03:05:49.935Z,6.55
2023-01-12T03:06:49.965Z,6.55
2023-01-12T03:07:49.949Z,6.54
2023-01-12T03:08:49.934Z,6.54
2023-01-12T03:09:49.907Z,6.54
2023-01-12T03:10:49.953Z,6.52
2023-01-12T03:11:49.919Z,6.51
2023-01-12T03:12:49.892Z,6.52
2023-01-12T03:13:49.876Z,6.52
2023-01-12T03:14:49.885Z,6.52
2023-01-12T03:15:49.897Z,6.51
2023-01-12T03:16:49.836Z,6.51
2023-01-12T03:17:49.817Z,6.51
2023-01-12T03:18:49.804Z,6.51
2023-01-12T03:19:49.766Z,6.49
2023-01-12T03:20:49.800Z,6.51
2023-01-12T03:21:49.766Z,6.49
2023-01-12T03:22:49.767Z,6.49
2023-01-12T03:23:49.929Z,6.49
2023-01-12T03:24:49.742Z,6.49
2023-01-12T03:25:49.705Z,6.49
2023-01-12T03:26:49.752Z,6.49
2023-01-12T03:27:49.692Z,6.49
2023-01-12T03:28:49.694Z,6.51
2023-01-12T03:29:49.811Z,6.49
2023-01-12T03:30:49.674Z,6.51
2023-01-12T03:31:49.643Z,6.51
2023-01-12T03:32:49.671Z,6.49
2023-01-12T03:33:49.623Z,6.49
2023-01-12T03:34:49.641Z,6.51
2023-01-12T03:35:49.609Z,6.52
2023-01-12T03:36:49.616Z,6.52
2023-01-12T03:37:49.564Z,6.51
2023-01-12T03:38:49.588Z,6.51
2023-01-12T03:39:49.548Z,6.52
2023-01-12T03:40:49.563Z,6.51
2023-01-12T03:41:49.549Z,6.52
2023-01-12T03:42:49.534Z,6.51
2023-01-12T03:43:49.488Z,6.52
2023-01-12T03:44:49.519Z,6.52
2023-01-12T03:45:49.473Z,6.54
2023-01-12T03:46:49.505Z,6.55
2023-01-12T03:47:49.456Z,6.54
2023-01-12T03:48:49.462Z,6.55
2023-01-12T03:49:49.419Z,6.56
2023-01-12T03:50:49.448Z,6.55
2023-01-12T03:51:49.402Z,6.56
2023-01-12T03:52:49.425Z,6.56
2023-01-12T03:53:49.391Z,6.58
2023-01-12T03:54:49.382Z,6.56
2023-01-12T03:55:49.354Z,6.56
2023-01-12T03:56:49.364Z,6.58
2023-01-12T03:57:49.363Z,6.55
2023-01-12T03:58:49.351Z,6.55
2023-01-12T03:59:49.303Z,6.56
2023-01-12T04:00:49.418Z,6.56
2023-01-12T04:01:49.415Z,6.55
2023-01-12T04:02:49.311Z,6.55
2023-01-12T04:03:49.314Z,6.56
2023-01-12T04:04:49.272Z,6.56
2023-01-12T04:05:49.243Z,6.56
2023-01-12T04:06:49.296Z,6.56
2023-01-12T04:07:49.215Z,6.55
2023-01-12T04:08:49.222Z,6.56
2023-01-12T04:09:49.221Z,6.55
2023-01-12T04:10:49.225Z,6.56
2023-01-12T04:11:49.172Z,6.56
2023-01-12T04:12:49.457Z,6.58
2023-01-12T04:13:49.141Z,6.56
2023-01-12T04:14:49.157Z,6.58
2023-01-12T04:15:49.170Z,6.59
2023-01-12T04:16:49.130Z,6.58
2023-01-12T04:17:49.092Z,6.59
2023-01-12T04:18:49.109Z,6.59
2023-01-12T04:19:49.080Z,6.59
2023-01-12T04:20:49.106Z,6.61
2023-01-12T04:21:49.056Z,6.61
2023-01-12T04:22:49.089Z,6.62
2023-01-12T04:23:49.019Z,6.64
2023-01-12T04:24:49.051Z,6.66
2023-01-12T04:25:49.019Z,6.62
2023-01-12T04:26:49.019Z,6.64
2023-01-12T04:27:49.010Z,6.64
2023-01-12T04:28:57.209Z,6.61
2023-01-12T04:29:49.647Z,6.62
2023-01-12T04:30:48.963Z,6.62
2023-01-12T04:31:49.085Z,6.64
2023-01-12T04:32:48.957Z,6.64
2023-01-12T04:33:48.948Z,6.64
2023-01-12T04:34:48.928Z,6.66
2023-01-12T04:35:48.889Z,6.62
2023-01-12T04:36:48.898Z,6.64
2023-01-12T04:37:48.924Z,6.66
2023-01-12T04:38:48.867Z,6.66
2023-01-12T04:39:48.858Z,6.64
2023-01-12T04:40:48.879Z,6.64
2023-01-12T04:41:48.824Z,6.64
2023-01-12T04:42:48.828Z,6.66
2023-01-12T04:43:48.796Z,6.64
2023-01-12T04:44:48.814Z,6.64
2023-01-12T04:45:48.822Z,6.66
2023-01-12T04:46:48.798Z,6.66
2023-01-12T04:47:48.747Z,6.67
2023-01-12T04:48:48.777Z,6.66
2023-01-12T04:49:48.716Z,6.67
2023-01-12T04:50:48.736Z,6.66
2023-01-12T04:51:48.712Z,6.66
2023-01-12T04:52:48.707Z,6.66
2023-01-12T04:53:48.709Z,6.67
2023-01-12T04:54:48.715Z,6.67
2023-01-12T04:55:48.656Z,6.69
2023-01-12T04:56:48.670Z,6.70
2023-01-12T04:57:48.631Z,6.70
2023-01-12T04:58:48.641Z,6.69
2023-01-12T04:59:48.605Z,6.69
2023-01-12T05:00:48.617Z,6.70
2023-01-12T05:01:48.626Z,6.69
2023-01-12T05:02:48.625Z,6.70
2023-01-12T05:03:48.623Z,6.70
2023-01-12T05:04:48.625Z,6.71
2023-01-12T05:05:48.556Z,6.74
2023-01-12T05:06:48.577Z,6.71
2023-01-12T05:07:48.513Z,6.71
2023-01-12T05:08:48.535Z,6.71
2023-01-12T05:09:48.847Z,6.71
2023-01-12T05:10:48.506Z,6.71
2023-01-12T05:11:48.475Z,6.71
2023-01-12T05:12:49.474Z,6.71
2023-01-12T05:13:48.587Z,6.73
2023-01-12T05:14:48.466Z,6.73
2023-01-12T05:15:48.436Z,6.73
2023-01-12T05:16:48.493Z,6.74
2023-01-12T05:17:48.415Z,6.74
2023-01-12T05:18:48.421Z,6.76
2023-01-12T05:19:48.384Z,6.76
2023-01-12T05:20:48.425Z,6.76
2023-01-12T05:21:48.367Z,6.77
2023-01-12T05:22:48.376Z,6.76
2023-01-12T05:23:48.354Z,6.76
2023-01-12T05:24:48.342Z,6.77
2023-01-12T05:25:48.315Z,6.79
2023-01-12T05:26:48.324Z,6.77
2023-01-12T05:27:48.314Z,6.77
2023-01-12T05:28:48.306Z,6.77
2023-01-12T05:29:48.269Z,6.77
2023-01-12T05:30:48.362Z,6.77
2023-01-12T05:31:48.242Z,6.79
2023-01-12T05:32:48.257Z,6.80
2023-01-12T05:33:48.245Z,6.79
2023-01-12T05:34:48.228Z,6.80
2023-01-12T05:35:48.223Z,6.80
2023-01-12T05:36:48.223Z,6.80
2023-01-12T05:37:48.197Z,6.80
2023-01-12T05:38:48.203Z,6.80
2023-01-12T05:39:48.152Z,6.81
2023-01-12T05:40:48.153Z,6.81
2023-01-12T05:41:48.145Z,6.81
2023-01-12T05:42:48.130Z,6.84
2023-01-12T05:43:48.106Z,6.84
2023-01-12T05:44:48.119Z,6.84
2023-01-12T05:45:48.117Z,6.84
2023-01-12T05:46:48.075Z,6.85
2023-01-12T05:47:48.064Z,6.84
2023-01-12T05:48:48.069Z,6.85
2023-01-12T05:49:48.043Z,6.84
2023-01-12T05:50:48.055Z,6.85
2023-01-12T05:51:48.002Z,6.85
2023-01-12T05:52:48.023Z,6.85
2023-01-12T05:53:47.983Z,6.85
2023-01-12T05:54:47.992Z,6.85
2023-01-12T05:55:47.972Z,6.84
2023-01-12T05:56:49.870Z,6.84
2023-01-12T05:57:47.932Z,6.84
2023-01-12T05:58:47.946Z,6.81
2023-01-12T05:59:47.913Z,6.81
2023-01-12T06:00:47.924Z,6.81
2023-01-12T06:01:47.892Z,6.80
2023-01-12T06:02:47.906Z,6.81
2023-01-12T06:03:47.861Z,6.80
2023-01-12T06:04:47.919Z,6.80
2023-01-12T06:05:47.848Z,6.80
2023-01-12T06:06:47.862Z,6.79
2023-01-12T06:07:47.831Z,6.80
2023-01-12T06:08:47.839Z,6.80
2023-01-12T06:09:47.813Z,6.80
2023-01-12T06:10:47.828Z,6.79
2023-01-12T06:11:47.822Z,6.80
2023-01-12T06:12:47.841Z,6.79
2023-01-12T06:13:47.813Z,6.80
2023-01-12T06:14:47.801Z,6.79
2023-01-12T06:15:47.759Z,6.80
2023-01-12T06:16:47.968Z,6.80
2023-01-12T06:17:47.739Z,6.80
2023-01-12T06:18:47.713Z,6.80
2023-01-12T06:19:47.689Z,6.80
2023-01-12T06:20:47.702Z,6.80
2023-01-12T06:21:47.652Z,6.80
2023-01-12T06:22:48.522Z,6.80
2023-01-12T06:23:47.667Z,6.81
2023-01-12T06:24:47.670Z,6.81
2023-01-12T06:25:47.719Z,6.81
2023-01-12T06:26:47.631Z,6.80
2023-01-12T06:27:47.571Z,6.81
2023-01-12T06:28:47.598Z,6.80
2023-01-12T06:29:47.594Z,6.80
2023-01-12T06:30:47.670Z,6.84
2023-01-12T06:31:47.530Z,6.81
2023-01-12T06:32:47.564Z,6.81
2023-01-12T06:33:47.514Z,6.85
2023-01-12T06:34:47.520Z,6.85
2023-01-12T06:35:47.496Z,6.85
2023-01-12T06:36:47.751Z,6.84
2023-01-12T06:37:47.474Z,6.84
2023-01-12T06:38:47.474Z,6.81
2023-01-12T06:39:47.448Z,6.81
2023-01-12T06:40:47.455Z,6.84
2023-01-12T06:41:47.420Z,6.81
2023-01-12T06:42:47.461Z,6.80
2023-01-12T06:43:47.389Z,6.81
2023-01-12T06:44:48.911Z,6.84
2023-01-12T06:45:47.359Z,6.81
2023-01-12T06:46:47.402Z,6.80
2023-01-12T06:47:47.817Z,6.81
2023-01-12T06:48:47.369Z,6.80
2023-01-12T06:49:47.329Z,6.79
2023-01-12T06:50:47.348Z,6.79
2023-01-12T06:51:47.296Z,6.79
2023-01-12T06:52:47.312Z,6.80
2023-01-12T06:53:47.592Z,6.79
2023-01-12T06:54:47.298Z,6.79
2023-01-12T06:55:47.272Z,6.80
2023-01-12T06:56:47.695Z,6.84
2023-01-12T06:57:47.383Z,6.84
2023-01-12T06:58:47.268Z,6.84
2023-01-12T06:59:47.250Z,6.84
2023-01-12T07:00:47.220Z,6.84
2023-01-12T07:01:47.283Z,6.84
2023-01-12T07:02:47.177Z,6.84
2023-01-12T07:03:47.260Z,6.81
2023-01-12T07:04:47.236Z,6.81
2023-01-12T07:05:47.179Z,6.80
2023-01-12T07:06:47.140Z,6.81
2023-01-12T07:07:47.187Z,6.81
2023-01-12T07:08:47.145Z,6.84
2023-01-12T07:09:47.123Z,6.81
2023-01-12T07:10:47.083Z,6.81
2023-01-12T07:11:47.102Z,6.81
2023-01-12T07:12:47.080Z,6.80
2023-01-12T07:13:47.079Z,6.80
2023-01-12T07:14:47.029Z,6.80
2023-01-12T07:15:47.085Z,6.79
2023-01-12T07:16:47.016Z,6.79
2023-01-12T07:17:47.269Z,6.79
2023-01-12T07:18:47.029Z,6.79
2023-01-12T07:19:47.017Z,6.80
2023-01-12T07:20:47.000Z,6.79
2023-01-12T07:21:46.983Z,6.79
2023-01-12T07:22:46.938Z,6.79
2023-01-12T07:23:46.984Z,6.79
2023-01-12T07:24:46.927Z,6.80
2023-01-12T07:25:46.936Z,6.79
2023-01-12T07:26:46.905Z,6.79
2023-01-12T07:27:46.912Z,6.80
2023-01-12T07:28:46.868Z,6.80
2023-01-12T07:29:46.899Z,6.80
2023-01-12T07:30:46.951Z,6.80
2023-01-12T07:31:46.873Z,6.80
2023-01-12T07:32:46.834Z,6.81
2023-01-12T07:33:46.841Z,6.81
2023-01-12T07:34:46.809Z,6.84
2023-01-12T07:35:46.818Z,6.84
2023-01-12T07:36:46.927Z,6.84
2023-01-12T07:37:47.051Z,6.81
2023-01-12T07:38:47.157Z,6.85
2023-01-12T07:39:46.774Z,6.84
2023-01-12T07:40:46.735Z,6.84
2023-01-12T07:41:46.770Z,6.81
2023-01-12T07:42:46.718Z,6.84
2023-01-12T07:43:46.727Z,6.81
2023-01-12T07:44:46.686Z,6.84
2023-01-12T07:45:46.709Z,6.81
2023-01-12T07:46:46.742Z,6.81
2023-01-12T07:47:46.758Z,6.84
2023-01-12T07:48:46.637Z,6.84
2023-01-12T07:49:46.649Z,6.84
2023-01-12T07:50:46.617Z,6.84
2023-01-12T07:51:46.637Z,6.84
2023-01-12T07:52:46.625Z,6.84
2023-01-12T07:53:46.637Z,6.81
2023-01-12T07:54:46.565Z,6.85
2023-01-12T07:55:46.589Z,6.84
2023-01-12T07:56:46.558Z,6.85
2023-01-12T07:57:46.578Z,6.85
2023-01-12T07:58:46.564Z,6.84
2023-01-12T07:59:46.537Z,6.81
2023-01-12T08:00:46.507Z,6.84
2023-01-12T08:01:46.577Z,6.84
2023-01-12T08:02:46.507Z,6.81
2023-01-12T08:03:46.485Z,6.81
2023-01-12T08:04:46.462Z,6.84
2023-01-12T08:05:46.517Z,6.84
2023-01-12T08:06:46.453Z,6.84
2023-01-12T08:07:46.447Z,6.84
2023-01-12T08:08:46.409Z,6.84
2023-01-12T08:09:46.754Z,6.81
2023-01-12T08:10:46.416Z,6.84
2023-01-12T08:11:46.398Z,6.84
2023-01-12T08:12:46.379Z,6.84
2023-01-12T08:13:46.375Z,6.84
2023-01-12T08:14:46.355Z,6.85
2023-01-12T08:15:46.947Z,6.84
2023-01-12T08:16:46.313Z,6.85
2023-01-12T08:17:46.349Z,6.85
2023-01-12T08:18:46.404Z,6.87
2023-01-12T08:19:46.346Z,6.87
2023-01-12T08:20:46.276Z,6.87
2023-01-12T08:21:46.318Z,6.88
2023-01-12T08:22:46.343Z,6.88
2023-01-12T08:23:46.273Z,6.89
2023-01-12T08:24:46.237Z,6.88
2023-01-12T08:25:46.242Z,6.89
2023-01-12T08:26:46.667Z,6.89
2023-01-12T08:27:46.214Z,6.91
2023-01-12T08:28:46.183Z,6.91
2023-01-12T08:29:46.204Z,6.91
2023-01-12T08:30:46.152Z,6.92
2023-01-12T08:31:46.322Z,6.92
2023-01-12T08:32:46.135Z,6.94
2023-01-12T08:33:46.153Z,6.92
2023-01-12T08:34:46.170Z,6.92
2023-01-12T08:35:46.127Z,6.94
2023-01-12T08:36:46.084Z,6.94
2023-01-12T08:37:46.115Z,6.92
2023-01-12T08:38:46.069Z,6.94
2023-01-12T08:39:46.082Z,6.95
2023-01-12T08:40:46.038Z,6.94
2023-01-12T08:41:46.095Z,6.95
2023-01-12T08:42:46.016Z,6.95
2023-01-12T08:43:46.041Z,6.94
2023-01-12T08:44:45.996Z,6.97
2023-01-12T08:45:46.021Z,6.98
2023-01-12T08:46:46.005Z,6.95
2023-01-12T08:47:45.991Z,6.97
2023-01-12T08:48:45.970Z,6.97
2023-01-12T08:49:45.973Z,6.98
2023-01-12T08:50:45.941Z,6.98
2023-01-12T08:51:45.956Z,6.99
2023-01-12T08:52:45.950Z,6.99
2023-01-12T08:53:45.949Z,7.02
2023-01-12T08:54:45.883Z,6.98
2023-01-12T08:55:45.890Z,6.99
2023-01-12T08:56:45.856Z,7.02
2023-01-12T08:57:45.876Z,7.03
2023-01-12T08:58:46.069Z,7.05
2023-01-12T08:59:45.890Z,7.03
2023-01-12T09:00:46.102Z,7.05
2023-01-12T09:01:45.922Z,7.06
2023-01-12T09:02:45.864Z,7.07
2023-01-12T09:03:45.799Z,7.09
2023-01-12T09:04:45.781Z,7.09
2023-01-12T09:05:45.777Z,7.10
2023-01-12T09:06:45.734Z,7.12
2023-01-12T09:07:45.790Z,7.12
2023-01-12T09:08:45.749Z,7.12
2023-01-12T09:09:45.744Z,7.12
2023-01-12T09:10:45.697Z,7.13
2023-01-12T09:11:45.722Z,7.13
2023-01-12T09:12:45.676Z,7.15
2023-01-12T09:13:45.689Z,7.15
2023-01-12T09:14:45.669Z,7.16
2023-01-12T09:16:01.237Z,7.16
2023-01-12T09:16:46.648Z,7.17
2023-01-12T09:17:45.648Z,7.20
2023-01-12T09:18:45.598Z,7.21
2023-01-12T09:19:45.631Z,7.21
2023-01-12T09:20:46.130Z,7.21
2023-01-12T09:21:45.618Z,7.21
2023-01-12T09:22:45.559Z,7.23
2023-01-12T09:23:45.613Z,7.24
2023-01-12T09:24:45.533Z,7.24
2023-01-12T09:25:45.539Z,7.25
2023-01-12T09:26:45.548Z,7.25
2023-01-12T09:27:45.522Z,7.24
2023-01-12T09:28:45.499Z,7.27
2023-01-12T09:29:45.505Z,7.28
2023-01-12T09:30:45.469Z,7.30
2023-01-12T09:31:45.495Z,7.31
2023-01-12T09:32:45.446Z,7.31
2023-01-12T09:33:45.458Z,7.32
2023-01-12T09:34:45.463Z,7.32
2023-01-12T09:35:45.440Z,7.34
2023-01-12T09:36:45.400Z,7.34
2023-01-12T09:37:45.431Z,7.35
2023-01-12T09:38:45.378Z,7.32
2023-01-12T09:39:45.409Z,7.34
2023-01-12T09:40:45.539Z,7.35
2023-01-12T09:41:45.366Z,7.34
2023-01-12T09:42:45.330Z,7.35
2023-01-12T09:43:45.347Z,7.39
2023-01-12T09:44:45.328Z,7.39
2023-01-12T09:45:45.358Z,7.39
2023-01-12T09:46:45.308Z,7.40
2023-01-12T09:47:45.300Z,7.42
2023-01-12T09:48:45.256Z,7.43
2023-01-12T09:49:45.331Z,7.43
2023-01-12T09:50:45.227Z,7.45
2023-01-12T09:51:45.246Z,7.45
2023-01-12T09:52:45.225Z,7.48
2023-01-12T09:53:47.353Z,7.46
2023-01-12T09:54:45.199Z,7.49
2023-01-12T09:55:45.207Z,7.49
2023-01-12T09:56:45.188Z,7.52
2023-01-12T09:57:45.181Z,7.50
2023-01-12T09:58:45.200Z,7.52
2023-01-12T09:59:45.188Z,7.53
2023-01-12T10:00:45.466Z,7.55
2023-01-12T10:01:45.597Z,7.55
2023-01-12T10:02:45.188Z,7.55
2023-01-12T10:03:45.153Z,7.55
2023-01-12T10:04:45.076Z,7.58
2023-01-12T10:05:45.129Z,7.58
2023-01-12T10:06:45.065Z,7.58
2023-01-12T10:07:45.087Z,7.60
2023-01-12T10:08:45.063Z,7.60
2023-01-12T10:09:45.167Z,7.60
2023-01-12T10:10:45.029Z,7.63
2023-01-12T10:11:45.069Z,7.61
2023-01-12T10:12:45.035Z,7.63
2023-01-12T10:13:44.991Z,7.64
2023-01-12T10:14:44.966Z,7.67
2023-01-12T10:15:45.009Z,7.67
2023-01-12T10:16:45.001Z,7.68
2023-01-12T10:17:51.417Z,7.68
2023-01-12T10:18:47.514Z,7.69
2023-01-12T10:19:47.183Z,7.69
2023-01-12T10:20:44.916Z,7.71
2023-01-12T10:21:44.991Z,7.72
2023-01-12T10:22:44.876Z,7.72
2023-01-12T10:23:44.919Z,7.74
2023-01-12T10:24:44.845Z,7.74
2023-01-12T10:25:44.873Z,7.75
2023-01-12T10:26:44.995Z,7.75
2023-01-12T10:27:44.858Z,7.77
2023-01-12T10:28:44.834Z,7.77
2023-01-12T10:29:44.820Z,7.79
2023-01-12T10:30:44.809Z,7.80
2023-01-12T10:31:44.825Z,7.79
2023-01-12T10:32:44.776Z,7.80
2023-01-12T10:33:44.807Z,7.82
2023-01-12T10:34:44.826Z,7.82
2023-01-12T10:35:44.744Z,7.82
2023-01-12T10:36:44.713Z,7.83
2023-01-12T10:37:44.767Z,7.83
2023-01-12T10:38:44.706Z,7.85
2023-01-12T10:39:44.750Z,7.85
2023-01-12T10:40:44.689Z,7.85
2023-01-12T10:41:44.745Z,7.85
2023-01-12T10:42:44.677Z,7.86
2023-01-12T10:43:44.675Z,7.86
2023-01-12T10:44:44.645Z,7.87
2023-01-12T10:45:44.683Z,7.86
2023-01-12T10:46:44.641Z,7.89
2023-01-12T10:47:44.658Z,7.92
2023-01-12T10:48:44.584Z,7.93
2023-01-12T10:49:44.596Z,7.93
2023-01-12T10:50:44.557Z,7.93
2023-01-12T10:51:44.575Z,7.97
2023-01-12T10:52:44.540Z,7.97
2023-01-12T10:53:44.549Z,8.00
2023-01-12T10:54:44.504Z,8.00
2023-01-12T10:55:44.551Z,8.02
2023-01-12T10:56:44.484Z,8.04
2023-01-12T10:57:44.518Z,8.04
2023-01-12T10:58:45.828Z,8.05
2023-01-12T10:59:44.513Z,8.08
2023-01-12T11:00:44.443Z,8.11
2023-01-12T11:01:44.563Z,8.11
2023-01-12T11:02:44.906Z,8.15
2023-01-12T11:03:44.453Z,8.15
2023-01-12T11:04:44.420Z,8.16
2023-01-12T11:05:44.405Z,8.19
2023-01-12T11:06:44.391Z,8.19
2023-01-12T11:07:44.384Z,8.20
2023-01-12T11:08:44.356Z,8.20
2023-01-12T11:09:44.378Z,8.22
2023-01-12T11:10:44.353Z,8.25
2023-01-12T11:11:44.733Z,8.23
2023-01-12T11:12:44.315Z,8.25
2023-01-12T11:13:44.327Z,8.28
2023-01-12T11:14:44.291Z,8.28
2023-01-12T11:15:44.304Z,8.29
2023-01-12T11:16:44.343Z,8.30
2023-01-12T11:17:44.255Z,8.30
2023-01-12T11:18:44.277Z,8.33
2023-01-12T11:19:44.239Z,8.34
2023-01-12T11:20:44.337Z,8.33
2023-01-12T11:21:44.305Z,8.34
2023-01-12T11:22:44.730Z,8.36
2023-01-12T11:23:44.307Z,8.34
2023-01-12T11:24:44.322Z,8.34
2023-01-12T11:25:44.337Z,8.33
2023-01-12T11:26:44.283Z,8.34
2023-01-12T11:27:44.281Z,8.34
2023-01-12T11:28:44.215Z,8.36
2023-01-12T11:29:45.072Z,8.36
2023-01-12T11:30:44.396Z,8.36
2023-01-12T11:31:44.318Z,8.37
2023-01-12T11:32:44.140Z,8.36
2023-01-12T11:33:44.292Z,8.38
2023-01-12T11:34:44.127Z,8.40
2023-01-12T11:35:44.057Z,8.38
2023-01-12T11:36:44.404Z,8.38
2023-01-12T11:37:44.032Z,8.38
2023-01-12T11:38:44.042Z,8.40
2023-01-12T11:39:44.011Z,8.41
2023-01-12T11:40:44.024Z,8.43
2023-01-12T11:41:44.012Z,8.43
2023-01-12T11:42:44.037Z,8.44
2023-01-12T11:43:44.031Z,8.45
2023-01-12T11:44:43.968Z,8.45
2023-01-12T11:45:43.955Z,8.45
2023-01-12T11:46:43.975Z,8.47
2023-01-12T11:47:43.923Z,8.47
2023-01-12T11:48:43.929Z,8.48
2023-01-12T11:49:43.896Z,8.48
2023-01-12T11:50:43.902Z,8.47
2023-01-12T11:51:43.893Z,8.47
2023-01-12T11:52:43.901Z,8.48
2023-01-12T11:53:43.842Z,8.48
2023-01-12T11:54:43.850Z,8.48
2023-01-12T11:55:43.856Z,8.48
2023-01-12T11:56:43.840Z,8.52
2023-01-12T11:57:43.821Z,8.52
2023-01-12T11:58:43.836Z,8.52
2023-01-12T11:59:43.822Z,8.52
2023-01-12T12:00:43.796Z,8.52
2023-01-12T12:01:43.765Z,8.53
2023-01-12T12:02:43.851Z,8.55
2023-01-12T12:03:44.073Z,8.56
2023-01-12T12:04:43.782Z,8.55
2023-01-12T12:05:43.749Z,8.55
2023-01-12T12:06:43.718Z,8.56
2023-01-12T12:07:43.692Z,8.59
2023-01-12T12:08:43.702Z,8.56
2023-01-12T12:09:43.701Z,8.58
2023-01-12T12:10:43.681Z,8.58
2023-01-12T12:11:43.651Z,8.59
2023-01-12T12:12:43.668Z,8.59
2023-01-12T12:13:43.667Z,8.59
2023-01-12T12:14:43.632Z,8.59
2023-01-12T12:15:43.633Z,8.61
2023-01-12T12:16:43.671Z,8.59
2023-01-12T12:17:43.710Z,8.61
2023-01-12T12:18:43.592Z,8.61
2023-01-12T12:19:43.570Z,8.62
2023-01-12T12:20:44.519Z,8.62
2023-01-12T12:21:43.560Z,8.65
2023-01-12T12:22:43.543Z,8.63
2023-01-12T12:23:43.517Z,8.65
2023-01-12T12:24:43.523Z,8.63
2023-01-12T12:25:43.499Z,8.66
2023-01-12T12:26:43.510Z,8.68
2023-01-12T12:27:43.477Z,8.70
2023-01-12T12:28:43.469Z,8.70
2023-01-12T12:29:43.455Z,8.70
2023-01-12T12:30:43.487Z,8.66
2023-01-12T12:31:43.429Z,8.66
2023-01-12T12:32:43.447Z,8.66
2023-01-12T12:33:43.422Z,8.68
2023-01-12T12:34:43.412Z,8.68
2023-01-12T12:35:43.386Z,8.70
2023-01-12T12:36:43.392Z,8.71
2023-01-12T12:37:43.348Z,8.71
2023-01-12T12:38:43.379Z,8.71
2023-01-12T12:39:43.370Z,8.73
2023-01-12T12:40:43.337Z,8.71
2023-01-12T12:41:43.322Z,8.74
2023-01-12T12:42:43.327Z,8.74
2023-01-12T12:43:43.280Z,8.74
2023-01-12T12:44:43.312Z,8.74
2023-01-12T12:45:43.328Z,8.77
2023-01-12T12:46:43.278Z,8.76
2023-01-12T12:47:43.251Z,8.77
2023-01-12T12:48:43.264Z,8.77
2023-01-12T12:49:43.216Z,8.76
2023-01-12T12:50:43.320Z,8.76
2023-01-12T12:51:43.200Z,8.76
2023-01-12T12:52:43.238Z,8.77
2023-01-12T12:53:43.182Z,8.77
2023-01-12T12:54:43.187Z,8.76
2023-01-12T12:55:43.156Z,8.76
2023-01-12T12:56:43.206Z,8.76
2023-01-12T12:57:43.121Z,8.74
2023-01-12T12:58:43.278Z,8.74
2023-01-12T12:59:43.110Z,8.74
2023-01-12T13:00:43.205Z,8.74
2023-01-12T13:01:43.213Z,8.74
2023-01-12T13:02:43.118Z,8.74
2023-01-12T13:03:43.055Z,8.73
2023-01-12T13:04:43.112Z,8.74
2023-01-12T13:05:43.063Z,8.71
2023-01-12T13:06:43.097Z,8.71
2023-01-12T13:07:43.026Z,8.73
2023-01-12T13:08:43.028Z,8.76
2023-01-12T13:09:42.999Z,8.74
2023-01-12T13:10:42.996Z,8.74
2023-01-12T13:11:42.980Z,8.74
2023-01-12T13:12:42.988Z,8.74
2023-01-12T13:13:42.948Z,8.76
2023-01-12T13:14:42.956Z,8.76
2023-01-12T13:15:42.980Z,8.76
2023-01-12T13:16:43.038Z,8.76
2023-01-12T13:17:42.943Z,8.74
2023-01-12T13:18:42.908Z,8.76